Time;durP1;ratioP1;P1;durP2;ratioP2;P2;SDS_P1;SDS_P2;PMS_P1;PMS_P2;Temp;Humidity;BMP_temperature;BMP_pressure;BME280_temperature;BME280_humidity;BME280_pressure;Samples;Min_cycle;Max_cycle;Signal;HPM_P1;HPM_P2
2023/08/06 00:00:22;;;;;;;525.03;274.55;;;;;;;;;;5051093;28;20427;-73
2023/08/06 00:02:50;;;;;;;520.35;279.17;;;;;;;;;;5061007;28;20514;-75
2023/08/06 00:05:26;;;;;;;509.13;257.55;;;;;;;;;;5043468;28;20873;-75
2023/08/06 00:07:56;;;;;;;501.00;244.63;;;;;;;;;;5056014;28;20427;-75
2023/08/06 00:10:23;;;;;;;498.52;248.05;;;;;;;;;;5048281;28;20435;-76
2023/08/06 00:12:50;;;;;;;498.80;249.50;;;;;;;;;;5048109;28;20562;-74
2023/08/06 00:15:18;;;;;;;503.02;257.77;;;;;;;;;;5068508;28;20431;-75
2023/08/06 00:17:45;;;;;;;503.65;250.90;;;;;;;;;;5062644;28;20425;-76
2023/08/06 00:20:12;;;;;;;506.30;257.50;;;;;;;;;;5069444;28;20443;-75
2023/08/06 00:22:41;;;;;;;511.73;270.38;;;;;;;;;;5050062;28;20490;-75
2023/08/06 00:25:09;;;;;;;513.28;271.10;;;;;;;;;;5039243;28;20438;-74
2023/08/06 00:27:37;;;;;;;510.50;260.40;;;;;;;;;;5058640;28;20512;-75
2023/08/06 00:30:04;;;;;;;514.90;270.25;;;;;;;;;;5057889;28;20433;-74
2023/08/06 00:32:31;;;;;;;524.25;283.27;;;;;;;;;;5060036;28;20427;-75
2023/08/06 00:34:59;;;;;;;537.50;297.73;;;;;;;;;;5040696;28;20846;-75
2023/08/06 00:37:30;;;;;;;546.67;312.13;;;;;;;;;;5043478;28;20433;-75
2023/08/06 00:39:57;;;;;;;552.73;318.00;;;;;;;;;;5055018;28;20555;-75
2023/08/06 00:42:24;;;;;;;564.65;329.00;;;;;;;;;;5055690;28;21123;-75
2023/08/06 00:44:51;;;;;;;564.35;326.60;;;;;;;;;;5045636;28;20517;-75
2023/08/06 00:47:20;;;;;;;564.75;330.80;;;;;;;;;;5050642;28;20429;-75
2023/08/06 00:49:47;;;;;;;560.75;317.52;;;;;;;;;;5035525;28;20434;-75
2023/08/06 00:52:14;;;;;;;560.25;319.13;;;;;;;;;;5043834;28;20507;-76
2023/08/06 00:54:42;;;;;;;556.03;308.48;;;;;;;;;;5033083;28;20435;-76
2023/08/06 00:57:10;;;;;;;555.17;319.10;;;;;;;;;;5045749;28;20506;-76
2023/08/06 00:59:40;;;;;;;555.72;323.90;;;;;;;;;;5033542;28;20439;-76
2023/08/06 01:02:08;;;;;;;552.70;320.23;;;;;;;;;;5046437;28;20472;-76
2023/08/06 01:04:35;;;;;;;551.08;312.10;;;;;;;;;;5049065;28;21043;-76
2023/08/06 01:07:22;;;;;;;549.85;301.35;;;;;;;;;;5049950;28;20457;-75
2023/08/06 01:10:08;;;;;;;555.70;326.20;;;;;;;;;;5040822;28;20432;-75
2023/08/06 01:12:39;;;;;;;554.28;325.23;;;;;;;;;;5044450;28;20482;-78
2023/08/06 01:15:18;;;;;;;552.40;315.15;;;;;;;;;;5047186;28;20493;-77
2023/08/06 01:17:45;;;;;;;553.65;326.33;;;;;;;;;;5051396;28;20532;-76
2023/08/06 01:20:13;;;;;;;546.92;316.25;;;;;;;;;;5050805;28;20821;-78
2023/08/06 01:22:40;;;;;;;543.00;312.05;;;;;;;;;;5055108;28;20490;-75
2023/08/06 01:25:07;;;;;;;549.53;324.38;;;;;;;;;;5060234;28;20469;-77
2023/08/06 01:27:49;;;;;;;548.35;318.73;;;;;;;;;;5065399;28;20518;-75
2023/08/06 01:30:21;;;;;;;556.47;331.60;;;;;;;;;;5042219;28;20486;-78
2023/08/06 01:32:50;;;;;;;563.92;340.02;;;;;;;;;;5042704;28;20423;-75
2023/08/06 01:35:19;;;;;;;574.05;339.10;;;;;;;;;;5037590;28;20419;-76
2023/08/06 01:37:47;;;;;;;578.50;359.45;;;;;;;;;;5047280;28;20429;-76
2023/08/06 01:40:15;;;;;;;592.33;372.73;;;;;;;;;;5038815;28;20505;-76
2023/08/06 01:42:42;;;;;;;599.70;386.70;;;;;;;;;;5036093;28;20434;-76
2023/08/06 01:45:10;;;;;;;602.33;390.52;;;;;;;;;;5038367;28;20850;-75
2023/08/06 01:47:37;;;;;;;614.33;412.57;;;;;;;;;;5039437;28;20429;-76
2023/08/06 01:50:04;;;;;;;617.72;413.80;;;;;;;;;;5050937;28;20465;-75
2023/08/06 01:52:31;;;;;;;617.13;400.13;;;;;;;;;;5043433;28;20438;-76
2023/08/06 01:54:59;;;;;;;625.83;413.47;;;;;;;;;;5045104;28;20512;-76
2023/08/06 01:57:26;;;;;;;636.47;428.52;;;;;;;;;;5047749;28;20428;-75
2023/08/06 01:59:53;;;;;;;644.40;433.35;;;;;;;;;;5055834;28;20432;-76
2023/08/06 02:02:20;;;;;;;641.03;435.50;;;;;;;;;;5038544;28;20456;-76
2023/08/06 02:04:50;;;;;;;642.63;430.35;;;;;;;;;;5055882;28;21074;-77
2023/08/06 02:07:17;;;;;;;646.10;434.45;;;;;;;;;;5058331;28;21076;-76
2023/08/06 02:09:44;;;;;;;643.40;431.58;;;;;;;;;;5050527;28;20440;-77
2023/08/06 02:12:11;;;;;;;656.17;440.40;;;;;;;;;;5062576;28;20438;-75
2023/08/06 02:14:38;;;;;;;647.97;436.88;;;;;;;;;;5052949;28;20888;-77
2023/08/06 02:17:06;;;;;;;650.83;429.13;;;;;;;;;;5048213;28;20425;-69
2023/08/06 02:19:39;;;;;;;644.00;435.80;;;;;;;;;;5050664;28;20434;-68
2023/08/06 02:22:06;;;;;;;644.85;439.08;;;;;;;;;;5052056;28;20620;-69
2023/08/06 02:24:33;;;;;;;641.15;439.45;;;;;;;;;;5052616;28;20913;-68
2023/08/06 02:27:00;;;;;;;644.15;439.83;;;;;;;;;;5040722;28;20485;-69
2023/08/06 02:29:30;;;;;;;645.83;445.00;;;;;;;;;;5039859;28;20465;-69
2023/08/06 02:32:05;;;;;;;661.03;459.90;;;;;;;;;;5038841;28;20899;-69
2023/08/06 02:34:32;;;;;;;666.75;460.02;;;;;;;;;;5028334;28;20517;-69
2023/08/06 02:36:59;;;;;;;669.17;466.92;;;;;;;;;;5038934;28;20432;-68
2023/08/06 02:39:30;;;;;;;660.38;459.33;;;;;;;;;;5030641;28;20517;-69
2023/08/06 02:41:58;;;;;;;660.95;412.10;;;;;;;;;;5029021;28;20431;-68
2023/08/06 02:44:28;;;;;;;680.50;446.67;;;;;;;;;;5034944;28;20432;-69
2023/08/06 02:46:55;;;;;;;679.33;427.92;;;;;;;;;;5044345;28;20495;-68
2023/08/06 02:49:24;;;;;;;686.80;448.88;;;;;;;;;;5048641;28;20947;-68
2023/08/06 02:51:52;;;;;;;688.28;452.13;;;;;;;;;;5046030;28;20449;-69
2023/08/06 02:54:20;;;;;;;690.35;453.17;;;;;;;;;;5027698;28;20427;-68
2023/08/06 02:56:47;;;;;;;690.08;473.02;;;;;;;;;;5041814;28;20425;-69
2023/08/06 02:59:14;;;;;;;692.83;472.10;;;;;;;;;;5044530;28;20501;-68
2023/08/06 03:01:41;;;;;;;693.83;472.60;;;;;;;;;;5047275;28;20483;-68
2023/08/06 03:04:11;;;;;;;691.08;459.15;;;;;;;;;;5046709;28;20443;-68
2023/08/06 03:06:38;;;;;;;691.95;472.48;;;;;;;;;;5033593;28;20964;-68
2023/08/06 03:09:05;;;;;;;685.40;449.88;;;;;;;;;;5034331;28;20431;-68
2023/08/06 03:11:33;;;;;;;684.45;455.50;;;;;;;;;;5050303;28;20908;-68
2023/08/06 03:14:12;;;;;;;691.85;449.60;;;;;;;;;;5052546;28;20530;-68
2023/08/06 03:16:39;;;;;;;695.60;457.92;;;;;;;;;;5041646;28;20530;-68
2023/08/06 03:19:06;;;;;;;694.03;455.65;;;;;;;;;;5053399;28;20469;-68
2023/08/06 03:21:33;;;;;;;693.78;460.65;;;;;;;;;;5055730;28;20963;-68
2023/08/06 03:24:00;;;;;;;699.80;474.30;;;;;;;;;;5056155;28;20885;-69
2023/08/06 03:26:28;;;;;;;693.05;454.67;;;;;;;;;;5043576;28;20992;-68
2023/08/06 03:28:55;;;;;;;684.80;459.52;;;;;;;;;;5053507;28;20429;-68
2023/08/06 03:31:25;;;;;;;679.00;448.83;;;;;;;;;;5039701;28;20488;-68
2023/08/06 03:33:52;;;;;;;672.67;451.05;;;;;;;;;;5042168;28;20427;-68
2023/08/06 03:36:19;;;;;;;682.50;445.08;;;;;;;;;;5043924;28;20431;-68
2023/08/06 03:38:46;;;;;;;685.25;435.40;;;;;;;;;;5044535;28;20486;-68
2023/08/06 03:41:13;;;;;;;691.38;447.83;;;;;;;;;;5048495;28;20432;-68
2023/08/06 03:43:43;;;;;;;689.30;441.58;;;;;;;;;;5044030;28;20451;-68
2023/08/06 03:46:13;;;;;;;689.25;452.63;;;;;;;;;;5058408;28;20486;-68
2023/08/06 03:48:44;;;;;;;692.83;455.33;;;;;;;;;;5036220;28;20487;-69
2023/08/06 03:51:11;;;;;;;692.28;455.92;;;;;;;;;;5043895;28;20439;-67
2023/08/06 03:53:38;;;;;;;700.17;481.77;;;;;;;;;;5054816;28;21034;-68
2023/08/06 03:56:05;;;;;;;705.03;482.63;;;;;;;;;;5036656;28;20448;-68
2023/08/06 03:58:32;;;;;;;705.20;482.10;;;;;;;;;;5047569;28;20512;-67
2023/08/06 04:01:03;;;;;;;706.55;496.08;;;;;;;;;;5045979;28;20838;-68
2023/08/06 04:03:31;;;;;;;695.33;469.10;;;;;;;;;;5044102;28;20456;-68
2023/08/06 04:05:58;;;;;;;699.45;477.05;;;;;;;;;;5059185;28;20438;-68
2023/08/06 04:08:25;;;;;;;696.13;469.42;;;;;;;;;;5044619;28;20487;-69
2023/08/06 04:10:53;;;;;;;702.87;478.57;;;;;;;;;;5036622;28;20497;-68
2023/08/06 04:13:20;;;;;;;704.28;480.73;;;;;;;;;;5056344;28;20469;-68
2023/08/06 04:15:48;;;;;;;712.92;494.95;;;;;;;;;;5038314;28;20484;-68
2023/08/06 04:18:15;;;;;;;715.35;498.33;;;;;;;;;;5051116;28;20774;-69
2023/08/06 04:20:49;;;;;;;718.63;504.30;;;;;;;;;;5035336;28;20488;-68
2023/08/06 04:23:18;;;;;;;721.42;509.50;;;;;;;;;;5040477;28;20444;-68
2023/08/06 04:25:45;;;;;;;715.20;497.75;;;;;;;;;;5057608;28;20449;-68
2023/08/06 04:28:13;;;;;;;705.13;493.40;;;;;;;;;;5041217;28;20440;-68
2023/08/06 04:30:40;;;;;;;705.88;479.02;;;;;;;;;;5035734;28;20604;-68
2023/08/06 04:33:07;;;;;;;697.60;471.70;;;;;;;;;;5040875;28;20435;-68
2023/08/06 04:35:34;;;;;;;676.47;407.17;;;;;;;;;;5037682;28;20430;-68
2023/08/06 04:38:01;;;;;;;703.53;451.33;;;;;;;;;;5046975;28;20510;-67
2023/08/06 04:40:28;;;;;;;622.35;466.52;;;;;;;;;;5052714;28;20489;-70
2023/08/06 04:42:56;;;;;;;639.85;383.75;;;;;;;;;;5039321;28;20435;-69
2023/08/06 04:45:24;;;;;;;623.80;362.92;;;;;;;;;;5035454;28;20454;-70
2023/08/06 04:47:51;;;;;;;608.15;346.05;;;;;;;;;;5038858;28;20437;-71
2023/08/06 04:50:19;;;;;;;596.67;333.52;;;;;;;;;;5042933;28;20430;-70
2023/08/06 04:52:47;;;;;;;583.20;317.77;;;;;;;;;;5034587;28;20435;-70
2023/08/06 04:55:14;;;;;;;570.70;292.38;;;;;;;;;;5045612;28;20455;-71
2023/08/06 04:57:41;;;;;;;574.38;302.92;;;;;;;;;;5044021;28;20424;-71
2023/08/06 05:00:08;;;;;;;575.23;306.13;;;;;;;;;;5040180;28;20445;-70
2023/08/06 05:02:37;;;;;;;536.95;267.75;;;;;;;;;;5058005;28;20435;-72
2023/08/06 05:05:05;;;;;;;530.83;264.30;;;;;;;;;;5057309;28;20428;-72
2023/08/06 05:07:32;;;;;;;527.65;261.80;;;;;;;;;;5039264;28;20441;-72
2023/08/06 05:10:00;;;;;;;513.75;241.05;;;;;;;;;;5056006;28;20468;-72
2023/08/06 05:12:27;;;;;;;522.33;252.93;;;;;;;;;;5037690;28;20488;-72
2023/08/06 05:14:54;;;;;;;528.22;261.33;;;;;;;;;;5033710;28;20435;-73
2023/08/06 05:17:23;;;;;;;526.10;256.98;;;;;;;;;;5048549;28;20422;-72
2023/08/06 05:19:50;;;;;;;528.80;264.60;;;;;;;;;;5047331;28;20433;-73
2023/08/06 05:22:18;;;;;;;532.47;271.88;;;;;;;;;;5031266;28;20426;-72
2023/08/06 05:24:45;;;;;;;540.92;277.48;;;;;;;;;;5031049;28;20916;-72
2023/08/06 05:27:14;;;;;;;538.50;272.67;;;;;;;;;;5043749;28;20459;-74
2023/08/06 05:29:42;;;;;;;547.45;290.15;;;;;;;;;;5048351;28;20425;-72
2023/08/06 05:32:10;;;;;;;540.53;272.88;;;;;;;;;;5046018;28;20934;-73
2023/08/06 05:34:37;;;;;;;535.83;271.07;;;;;;;;;;5051550;28;20429;-76
2023/08/06 05:37:09;;;;;;;545.95;290.00;;;;;;;;;;5044941;28;20504;-73
2023/08/06 05:39:36;;;;;;;551.42;298.30;;;;;;;;;;5043405;28;20507;-72
2023/08/06 05:42:03;;;;;;;554.05;305.15;;;;;;;;;;5046103;28;20437;-72
2023/08/06 05:44:30;;;;;;;558.53;304.25;;;;;;;;;;5042003;28;20437;-71
2023/08/06 05:46:58;;;;;;;564.50;313.08;;;;;;;;;;5041767;28;20515;-71
2023/08/06 05:49:25;;;;;;;568.38;314.98;;;;;;;;;;5034329;28;20923;-73
2023/08/06 05:51:53;;;;;;;576.50;334.60;;;;;;;;;;5044546;28;20485;-73
2023/08/06 05:54:21;;;;;;;572.78;311.08;;;;;;;;;;5036751;28;20431;-72
2023/08/06 05:56:48;;;;;;;584.47;331.88;;;;;;;;;;5041342;28;20453;-72
2023/08/06 05:59:15;;;;;;;613.00;349.48;;;;;;;;;;5049041;28;20895;-74
2023/08/06 06:01:42;;;;;;;624.03;362.08;;;;;;;;;;5034485;28;21050;-72
2023/08/06 06:04:10;;;;;;;633.72;373.35;;;;;;;;;;5035091;28;20460;-75
2023/08/06 06:06:37;;;;;;;633.42;369.08;;;;;;;;;;5040803;28;20444;-75
2023/08/06 06:09:04;;;;;;;633.92;363.00;;;;;;;;;;5054550;28;20440;-76
2023/08/06 06:11:31;;;;;;;628.25;347.13;;;;;;;;;;5043586;28;20468;-74
2023/08/06 06:14:01;;;;;;;604.47;325.63;;;;;;;;;;5041155;28;20514;-76
2023/08/06 06:16:28;;;;;;;606.85;311.00;;;;;;;;;;5035568;28;20505;-74
2023/08/06 06:18:57;;;;;;;597.13;308.15;;;;;;;;;;5041422;28;20508;-75
2023/08/06 06:21:24;;;;;;;600.67;312.67;;;;;;;;;;5042050;28;20480;-75
2023/08/06 06:23:51;;;;;;;603.65;331.90;;;;;;;;;;5044680;28;20482;-76
2023/08/06 06:26:32;;;;;;;612.17;335.25;;;;;;;;;;5039764;28;20991;-74
2023/08/06 06:29:00;;;;;;;621.33;323.45;;;;;;;;;;5040632;28;20428;-75
2023/08/06 06:31:32;;;;;;;609.83;318.23;;;;;;;;;;5040810;28;20430;-76
2023/08/06 06:34:02;;;;;;;628.80;329.17;;;;;;;;;;5044247;28;20457;-75
2023/08/06 06:36:29;;;;;;;634.72;345.20;;;;;;;;;;5041212;28;20512;-75
2023/08/06 06:38:56;;;;;;;644.80;362.08;;;;;;;;;;5048565;28;20502;-76
2023/08/06 06:41:24;;;;;;;632.20;336.95;;;;;;;;;;5036081;28;20436;-74
2023/08/06 06:43:51;;;;;;;645.10;369.77;;;;;;;;;;5046026;28;20429;-74
2023/08/06 06:46:18;;;;;;;648.20;361.43;;;;;;;;;;5032336;28;20483;-76
2023/08/06 06:48:45;;;;;;;644.65;336.70;;;;;;;;;;5042741;28;20429;-74
2023/08/06 06:51:12;;;;;;;642.23;362.23;;;;;;;;;;5035886;28;20532;-73
2023/08/06 06:53:40;;;;;;;646.10;366.15;;;;;;;;;;5040463;28;20429;-73
2023/08/06 06:56:07;;;;;;;635.40;345.55;;;;;;;;;;5040512;28;20429;-75
2023/08/06 06:58:34;;;;;;;633.73;343.70;;;;;;;;;;5035408;28;20423;-73
2023/08/06 07:01:02;;;;;;;634.40;354.17;;;;;;;;;;5041399;28;20441;-73
2023/08/06 07:03:30;;;;;;;618.10;336.30;;;;;;;;;;5042034;28;20816;-72
2023/08/06 07:06:01;;;;;;;618.35;345.83;;;;;;;;;;5033835;28;20462;-72
2023/08/06 07:08:28;;;;;;;579.97;300.90;;;;;;;;;;5034715;28;20424;-71
2023/08/06 07:11:04;;;;;;;606.25;336.13;;;;;;;;;;5034433;28;20428;-73
2023/08/06 07:13:32;;;;;;;605.42;333.30;;;;;;;;;;5033528;28;20445;-71
2023/08/06 07:15:59;;;;;;;594.47;319.90;;;;;;;;;;5054296;28;20436;-71
2023/08/06 07:18:27;;;;;;;562.67;279.60;;;;;;;;;;5041577;28;21271;-71
2023/08/06 07:20:55;;;;;;;584.83;315.48;;;;;;;;;;5044962;28;20475;-74
2023/08/06 07:23:26;;;;;;;559.47;284.75;;;;;;;;;;5035536;28;20464;-73
2023/08/06 07:25:53;;;;;;;558.35;278.08;;;;;;;;;;5041246;28;20446;-73
2023/08/06 07:28:20;;;;;;;590.78;310.55;;;;;;;;;;5044868;28;20455;-73
2023/08/06 07:30:47;;;;;;;589.27;305.47;;;;;;;;;;5038017;28;20919;-73
2023/08/06 07:33:15;;;;;;;594.20;316.73;;;;;;;;;;5044873;28;21051;-73
2023/08/06 07:35:43;;;;;;;594.78;308.80;;;;;;;;;;5030185;28;20423;-73
2023/08/06 07:38:10;;;;;;;608.15;335.92;;;;;;;;;;5035839;28;20458;-73
2023/08/06 07:40:37;;;;;;;614.78;343.20;;;;;;;;;;5045372;28;20517;-74
2023/08/06 07:43:07;;;;;;;629.63;361.10;;;;;;;;;;5041946;28;20512;-74
2023/08/06 07:45:35;;;;;;;610.63;327.77;;;;;;;;;;5038522;28;20484;-73
2023/08/06 07:48:03;;;;;;;592.42;310.42;;;;;;;;;;5037450;28;20517;-74
2023/08/06 07:50:31;;;;;;;596.20;313.08;;;;;;;;;;5038531;28;20443;-73
2023/08/06 07:52:58;;;;;;;594.85;306.52;;;;;;;;;;5044800;28;20506;-73
2023/08/06 07:55:28;;;;;;;618.20;331.75;;;;;;;;;;5046781;28;20441;-74
2023/08/06 07:57:56;;;;;;;647.17;367.65;;;;;;;;;;5035038;28;20430;-74
2023/08/06 08:00:23;;;;;;;711.00;459.90;;;;;;;;;;5039695;28;20517;-74
2023/08/06 08:02:51;;;;;;;742.40;491.38;;;;;;;;;;5046607;28;20435;-76
2023/08/06 08:05:18;;;;;;;784.20;536.03;;;;;;;;;;5030909;28;20443;-75
2023/08/06 08:07:45;;;;;;;813.58;569.10;;;;;;;;;;5039274;28;20456;-74
2023/08/06 08:10:12;;;;;;;812.63;558.17;;;;;;;;;;5039822;28;20489;-73
2023/08/06 08:12:40;;;;;;;827.35;566.40;;;;;;;;;;5046321;28;20450;-75
2023/08/06 08:15:07;;;;;;;850.92;599.60;;;;;;;;;;5043080;28;22323;-75
2023/08/06 08:17:34;;;;;;;863.35;605.13;;;;;;;;;;5041291;28;20485;-73
2023/08/06 08:20:02;;;;;;;869.05;616.78;;;;;;;;;;5036325;28;20454;-74
2023/08/06 08:22:30;;;;;;;865.75;609.58;;;;;;;;;;5045970;28;20963;-75
2023/08/06 08:24:57;;;;;;;847.37;590.83;;;;;;;;;;5036372;28;20450;-74
2023/08/06 08:27:24;;;;;;;907.72;668.10;;;;;;;;;;5035539;28;20443;-74
2023/08/06 08:29:51;;;;;;;936.65;705.58;;;;;;;;;;5041460;28;20437;-74
2023/08/06 08:32:18;;;;;;;942.20;719.63;;;;;;;;;;5031955;28;20514;-74
2023/08/06 08:34:45;;;;;;;953.38;736.53;;;;;;;;;;5038980;28;20807;-75
2023/08/06 08:37:13;;;;;;;958.50;746.43;;;;;;;;;;5037272;28;21169;-73
2023/08/06 08:39:43;;;;;;;953.47;741.93;;;;;;;;;;5032100;28;20889;-74
2023/08/06 08:42:22;;;;;;;955.77;744.53;;;;;;;;;;5038090;28;20823;-76
2023/08/06 08:44:49;;;;;;;951.78;741.45;;;;;;;;;;5048705;28;21007;-75
2023/08/06 08:47:19;;;;;;;955.50;749.20;;;;;;;;;;5038696;28;21159;-74
2023/08/06 08:49:47;;;;;;;948.08;744.85;;;;;;;;;;5046463;28;20499;-76
2023/08/06 08:52:15;;;;;;;930.72;715.00;;;;;;;;;;5040785;28;20432;-75
2023/08/06 08:54:44;;;;;;;932.90;720.03;;;;;;;;;;5042045;28;20430;-75
2023/08/06 08:57:11;;;;;;;938.90;728.70;;;;;;;;;;5037688;28;20489;-76
2023/08/06 08:59:38;;;;;;;947.15;742.70;;;;;;;;;;5038258;28;20434;-75
2023/08/06 09:02:06;;;;;;;964.55;765.05;;;;;;;;;;5039383;28;20512;-76
2023/08/06 09:04:36;;;;;;;958.40;764.92;;;;;;;;;;5041739;28;20479;-74
2023/08/06 09:07:05;;;;;;;959.50;764.75;;;;;;;;;;5037973;28;20457;-75
2023/08/06 09:09:33;;;;;;;956.67;754.05;;;;;;;;;;5046337;28;20423;-75
2023/08/06 09:12:02;;;;;;;943.08;724.75;;;;;;;;;;5043346;28;20524;-74
2023/08/06 09:14:29;;;;;;;942.28;715.85;;;;;;;;;;5044893;28;20431;-75
2023/08/06 09:16:57;;;;;;;936.43;698.90;;;;;;;;;;5043489;28;20417;-74
2023/08/06 09:19:25;;;;;;;927.85;687.83;;;;;;;;;;5045974;28;21182;-75
2023/08/06 09:21:56;;;;;;;932.95;688.70;;;;;;;;;;5046934;28;20428;-76
2023/08/06 09:24:24;;;;;;;936.30;696.53;;;;;;;;;;5044920;28;20516;-76
2023/08/06 09:26:51;;;;;;;933.55;695.20;;;;;;;;;;5047557;28;20439;-75
2023/08/06 09:29:18;;;;;;;939.83;701.97;;;;;;;;;;5040988;28;20461;-76
2023/08/06 09:31:46;;;;;;;923.13;677.42;;;;;;;;;;5037371;28;21010;-78
2023/08/06 09:34:18;;;;;;;916.25;667.95;;;;;;;;;;5049741;28;20435;-77
2023/08/06 09:36:48;;;;;;;912.92;664.60;;;;;;;;;;5047280;28;20463;-77
2023/08/06 09:39:16;;;;;;;908.65;657.47;;;;;;;;;;5050068;28;20504;-75
2023/08/06 09:41:44;;;;;;;914.60;661.75;;;;;;;;;;5042038;28;20484;-74
2023/08/06 09:44:19;;;;;;;877.35;621.63;;;;;;;;;;5045118;28;20486;-74
2023/08/06 09:46:52;;;;;;;899.63;649.17;;;;;;;;;;5048240;28;20591;-74
2023/08/06 09:49:20;;;;;;;862.60;607.38;;;;;;;;;;5040501;28;20510;-74
2023/08/06 09:51:55;;;;;;;874.72;615.95;;;;;;;;;;5039419;28;20469;-74
2023/08/06 09:54:23;;;;;;;883.33;630.55;;;;;;;;;;5046094;28;20510;-74
2023/08/06 09:56:54;;;;;;;897.20;650.60;;;;;;;;;;5043619;28;20433;-75
2023/08/06 09:59:23;;;;;;;928.17;687.35;;;;;;;;;;5042041;28;20523;-74
2023/08/06 10:01:51;;;;;;;911.15;671.38;;;;;;;;;;5039086;28;20427;-76
2023/08/06 10:04:20;;;;;;;873.80;627.83;;;;;;;;;;5041677;28;20429;-75
2023/08/06 10:06:53;;;;;;;931.38;692.20;;;;;;;;;;5048656;28;20429;-76
2023/08/06 10:09:20;;;;;;;931.33;696.35;;;;;;;;;;5035758;28;20511;-75
2023/08/06 10:11:53;;;;;;;935.70;698.70;;;;;;;;;;5043084;28;20430;-76
2023/08/06 10:14:36;;;;;;;928.33;688.90;;;;;;;;;;5042014;28;20433;-75
2023/08/06 10:17:06;;;;;;;939.67;706.58;;;;;;;;;;5037233;28;20946;-76
2023/08/06 10:19:33;;;;;;;958.13;734.58;;;;;;;;;;5034703;28;20431;-76
2023/08/06 10:22:14;;;;;;;977.13;767.28;;;;;;;;;;5042839;28;20545;-77
2023/08/06 10:24:48;;;;;;;953.35;749.40;;;;;;;;;;5042860;28;20439;-77
2023/08/06 10:27:32;;;;;;;959.30;756.37;;;;;;;;;;5036375;28;20968;-77
2023/08/06 10:30:18;;;;;;;960.10;763.28;;;;;;;;;;5038103;28;20872;-76
2023/08/06 10:32:50;;;;;;;987.40;798.80;;;;;;;;;;5037937;28;20434;-76
2023/08/06 10:35:37;;;;;;;1000.65;829.47;;;;;;;;;;5039836;28;20502;-77
2023/08/06 10:38:11;;;;;;;1014.22;854.53;;;;;;;;;;5037697;28;20930;-78
2023/08/06 10:40:40;;;;;;;1003.80;838.67;;;;;;;;;;5045423;28;20452;-77
2023/08/06 10:43:25;;;;;;;987.05;818.20;;;;;;;;;;5044982;28;22256;-76
2023/08/06 10:45:52;;;;;;;997.78;833.22;;;;;;;;;;5046128;28;20534;-75
2023/08/06 10:48:40;;;;;;;999.27;839.03;;;;;;;;;;5045604;28;20465;-75
2023/08/06 10:51:08;;;;;;;1014.63;864.53;;;;;;;;;;5047320;28;20442;-76
2023/08/06 10:53:35;;;;;;;1022.50;882.65;;;;;;;;;;5041530;28;20478;-76
2023/08/06 10:56:12;;;;;;;1022.63;878.25;;;;;;;;;;5047013;28;20573;-78
2023/08/06 10:58:40;;;;;;;1022.05;876.05;;;;;;;;;;5054644;28;21038;-75
2023/08/06 11:01:07;;;;;;;1018.90;876.38;;;;;;;;;;5046494;28;20433;-77
2023/08/06 11:03:35;;;;;;;1015.72;862.22;;;;;;;;;;5032175;28;20458;-75
2023/08/06 11:06:02;;;;;;;997.10;837.72;;;;;;;;;;5035067;28;20467;-76
2023/08/06 11:08:33;;;;;;;981.35;790.83;;;;;;;;;;5046013;28;20865;-78
2023/08/06 11:11:14;;;;;;;969.53;767.50;;;;;;;;;;5037950;28;20436;-82
2023/08/06 11:13:41;;;;;;;965.80;748.53;;;;;;;;;;5037812;28;20427;-79
2023/08/06 11:16:12;;;;;;;967.73;740.03;;;;;;;;;;5046199;28;20433;-82
2023/08/06 11:18:42;;;;;;;942.83;702.85;;;;;;;;;;5055210;28;20434;-78
2023/08/06 11:21:11;;;;;;;928.80;685.60;;;;;;;;;;5039051;28;20433;-77
2023/08/06 11:23:39;;;;;;;915.17;664.73;;;;;;;;;;5036653;28;21035;-76
2023/08/06 11:26:06;;;;;;;878.85;617.15;;;;;;;;;;5045408;28;20437;-76
2023/08/06 11:28:33;;;;;;;883.03;615.72;;;;;;;;;;5045916;28;21112;-77
2023/08/06 11:31:02;;;;;;;875.67;613.80;;;;;;;;;;5042276;28;20460;-77
2023/08/06 11:33:29;;;;;;;899.80;643.70;;;;;;;;;;5040612;28;20436;-76
2023/08/06 11:35:57;;;;;;;899.93;642.33;;;;;;;;;;5042305;28;20425;-77
2023/08/06 11:38:29;;;;;;;901.75;645.00;;;;;;;;;;5040755;28;20789;-79
2023/08/06 11:40:59;;;;;;;902.77;646.10;;;;;;;;;;5035134;28;20443;-76
2023/08/06 11:43:31;;;;;;;879.33;616.13;;;;;;;;;;5041161;28;20507;-78
2023/08/06 11:46:00;;;;;;;899.90;652.10;;;;;;;;;;5042349;28;20433;-78
2023/08/06 11:48:30;;;;;;;891.55;632.97;;;;;;;;;;5041597;28;20451;-77
2023/08/06 11:51:01;;;;;;;888.42;611.70;;;;;;;;;;5035371;28;20429;-77
2023/08/06 11:53:29;;;;;;;869.65;582.97;;;;;;;;;;5048143;28;20427;-75
2023/08/06 11:55:56;;;;;;;866.33;578.97;;;;;;;;;;5046847;28;20524;-78
2023/08/06 11:58:23;;;;;;;863.25;574.83;;;;;;;;;;5039934;28;20433;-74
2023/08/06 12:00:51;;;;;;;860.28;560.70;;;;;;;;;;5043484;28;20969;-78
2023/08/06 12:03:20;;;;;;;876.17;592.13;;;;;;;;;;5046683;28;21091;-79
2023/08/06 12:05:48;;;;;;;867.17;565.30;;;;;;;;;;5043829;28;21012;-75
2023/08/06 12:08:15;;;;;;;889.08;597.50;;;;;;;;;;5043917;28;20516;-78
2023/08/06 12:10:46;;;;;;;893.93;613.40;;;;;;;;;;5042833;28;20526;-77
2023/08/06 12:13:16;;;;;;;883.50;605.57;;;;;;;;;;5035895;28;20480;-76
2023/08/06 12:15:43;;;;;;;899.75;619.45;;;;;;;;;;5041952;28;20498;-80
2023/08/06 12:18:10;;;;;;;887.75;606.85;;;;;;;;;;5037954;28;20476;-78
2023/08/06 12:20:38;;;;;;;943.87;676.47;;;;;;;;;;5039941;28;20441;-78
2023/08/06 12:23:05;;;;;;;959.38;693.67;;;;;;;;;;5041015;28;20432;-78
2023/08/06 12:25:33;;;;;;;965.13;695.53;;;;;;;;;;5044498;28;20436;-78
2023/08/06 12:28:00;;;;;;;961.13;711.83;;;;;;;;;;5040803;28;20468;-77
2023/08/06 12:30:27;;;;;;;848.58;753.55;;;;;;;;;;5036162;28;22559;-76
2023/08/06 12:32:54;;;;;;;916.15;705.17;;;;;;;;;;5046492;28;20440;-77
2023/08/06 12:35:22;;;;;;;956.28;698.65;;;;;;;;;;5042513;28;20503;-75
2023/08/06 12:37:51;;;;;;;942.78;678.42;;;;;;;;;;5048836;28;20451;-78
2023/08/06 12:40:18;;;;;;;951.95;687.67;;;;;;;;;;5050475;28;20433;-75
2023/08/06 12:43:02;;;;;;;941.22;675.63;;;;;;;;;;5049615;28;20937;-77
2023/08/06 12:45:29;;;;;;;936.35;666.25;;;;;;;;;;5047599;28;20437;-73
2023/08/06 12:47:56;;;;;;;930.90;665.78;;;;;;;;;;5043101;28;20502;-73
2023/08/06 12:50:26;;;;;;;945.28;678.38;;;;;;;;;;5049062;28;20433;-77
2023/08/06 12:52:54;;;;;;;944.75;679.50;;;;;;;;;;5047182;28;20605;-75
2023/08/06 12:55:21;;;;;;;925.60;657.97;;;;;;;;;;5042548;28;20476;-77
2023/08/06 12:57:51;;;;;;;918.87;644.17;;;;;;;;;;5035695;28;20446;-78
2023/08/06 13:00:26;;;;;;;914.33;643.53;;;;;;;;;;5042795;28;20426;-77
2023/08/06 13:02:53;;;;;;;911.20;633.10;;;;;;;;;;5048032;28;20429;-78
2023/08/06 13:05:20;;;;;;;906.33;623.67;;;;;;;;;;5039892;28;20479;-77
2023/08/06 13:07:48;;;;;;;934.97;654.45;;;;;;;;;;5046595;28;21014;-73
2023/08/06 13:10:15;;;;;;;914.50;631.85;;;;;;;;;;5042533;28;20439;-76
2023/08/06 13:12:45;;;;;;;931.40;654.65;;;;;;;;;;5040016;28;20434;-80
2023/08/06 13:15:16;;;;;;;920.13;642.60;;;;;;;;;;5048155;28;20429;-78
2023/08/06 13:17:44;;;;;;;881.75;630.08;;;;;;;;;;5047626;28;20430;-75
2023/08/06 13:20:11;;;;;;;896.53;621.90;;;;;;;;;;5034567;28;20425;-77
2023/08/06 13:22:38;;;;;;;861.47;602.38;;;;;;;;;;5034733;28;20968;-75
2023/08/06 13:25:05;;;;;;;852.30;600.33;;;;;;;;;;5042064;28;20569;-73
2023/08/06 13:27:32;;;;;;;837.20;590.42;;;;;;;;;;5036797;28;20921;-77
2023/08/06 13:30:03;;;;;;;831.90;575.20;;;;;;;;;;5036009;28;20480;-80
2023/08/06 13:32:32;;;;;;;823.67;574.33;;;;;;;;;;5047708;28;20544;-75
2023/08/06 13:34:59;;;;;;;839.15;575.15;;;;;;;;;;5031885;28;20484;-75
2023/08/06 13:37:26;;;;;;;832.97;566.00;;;;;;;;;;5043167;28;20441;-74
2023/08/06 13:39:53;;;;;;;841.45;568.38;;;;;;;;;;5041947;28;20479;-75
2023/08/06 13:42:22;;;;;;;835.10;558.65;;;;;;;;;;5041916;28;20437;-76
2023/08/06 13:44:50;;;;;;;829.10;546.05;;;;;;;;;;5033756;28;20441;-74
2023/08/06 13:47:17;;;;;;;826.85;545.17;;;;;;;;;;5030328;28;20434;-75
2023/08/06 13:49:44;;;;;;;836.70;535.95;;;;;;;;;;5036543;28;20463;-75
2023/08/06 13:52:11;;;;;;;812.42;527.85;;;;;;;;;;5044215;28;20509;-74
2023/08/06 13:54:48;;;;;;;822.47;542.20;;;;;;;;;;5035012;28;20429;-72
2023/08/06 13:57:17;;;;;;;822.23;530.83;;;;;;;;;;5035251;28;20430;-76
2023/08/06 13:59:44;;;;;;;832.90;545.55;;;;;;;;;;5039252;28;20441;-77